Time;durP1;ratioP1;P1;durP2;ratioP2;P2;SDS_P1;SDS_P2;PMS_P1;PMS_P2;Temp;Humidity;BMP_temperature;BMP_pressure;BME280_temperature;BME280_humidity;BME280_pressure;Samples;Min_cycle;Max_cycle;Signal;HPM_P1;HPM_P2
2022/05/27 00:00:26;;;;;;;4.32;1.98;;;;;;;16.95;59.39;97799.34;4876317;28;20207;-79
2022/05/27 00:02:53;;;;;;;4.53;2.03;;;;;;;17.04;59.07;97796.94;4896067;28;20324;-79
2022/05/27 00:05:19;;;;;;;2.72;2.00;;;;;;;17.04;59.20;97792.47;4894697;28;20695;-79
2022/05/27 00:07:44;;;;;;;2.58;1.92;;;;;;;17.01;59.39;97800.88;4907072;28;20278;-79
2022/05/27 00:10:11;;;;;;;3.05;1.83;;;;;;;16.96;59.40;97795.66;4873359;28;20280;-79
2022/05/27 00:12:37;;;;;;;3.47;1.90;;;;;;;16.94;59.70;97800.41;4872138;28;20631;-80
2022/05/27 00:15:06;;;;;;;3.88;1.80;;;;;;;16.93;59.62;97790.16;4898775;28;20278;-79
2022/05/27 00:17:31;;;;;;;2.20;2.00;;;;;;;16.95;59.80;97788.84;4895147;28;20218;-79
2022/05/27 00:19:57;;;;;;;3.85;2.15;;;;;;;16.94;59.79;97783.84;4891015;28;20206;-79
2022/05/27 00:22:22;;;;;;;4.35;2.33;;;;;;;16.87;60.02;97784.13;4895121;28;20125;-79
2022/05/27 00:24:48;;;;;;;2.58;1.98;;;;;;;16.84;59.86;97782.03;4872744;28;20282;-79
2022/05/27 00:27:14;;;;;;;4.55;2.17;;;;;;;16.80;60.33;97775.72;4880461;28;20247;-80
2022/05/27 00:29:39;;;;;;;3.22;2.50;;;;;;;16.78;60.78;97775.22;4893450;28;20652;-79
2022/05/27 00:32:05;;;;;;;3.20;2.22;;;;;;;16.79;60.16;97780.19;4906482;28;20195;-80
2022/05/27 00:34:31;;;;;;;2.33;1.95;;;;;;;16.83;60.16;97778.59;4890540;28;20207;-79
2022/05/27 00:36:56;;;;;;;4.07;2.10;;;;;;;16.80;60.34;97771.25;4882369;28;20168;-79
2022/05/27 00:39:22;;;;;;;2.63;1.88;;;;;;;16.77;60.51;97773.63;4878561;28;20271;-79
2022/05/27 00:41:47;;;;;;;2.35;1.77;;;;;;;16.76;60.47;97774.66;4886414;28;20198;-80
2022/05/27 00:44:13;;;;;;;4.10;1.92;;;;;;;16.70;60.39;97773.91;4903515;28;20217;-79
2022/05/27 00:46:40;;;;;;;2.70;1.90;;;;;;;16.58;60.19;97768.94;4887288;28;20209;-79
2022/05/27 00:49:25;;;;;;;3.83;2.42;;;;;;;16.44;61.18;97768.75;4883102;28;20191;-79
2022/05/27 00:51:55;;;;;;;;;;;;;;;16.31;61.01;97769.28;4900761;28;20218;-79
2022/05/27 00:54:23;;;;;;;5.45;2.50;;;;;;;16.46;60.65;97768.47;4888976;28;20038;-79
2022/05/27 00:56:55;;;;;;;3.60;2.08;;;;;;;16.40;60.75;97757.19;4883584;28;20624;-80
2022/05/27 00:59:25;;;;;;;2.67;1.90;;;;;;;16.45;60.85;97766.88;4876102;28;20490;-79
2022/05/27 01:01:52;;;;;;;3.63;2.28;;;;;;;16.44;61.25;97757.44;4906118;28;20286;-81
2022/05/27 01:04:18;;;;;;;3.65;2.22;;;;;;;16.52;61.08;97753.47;4926421;28;20014;-81
2022/05/27 01:06:45;;;;;;;4.22;2.42;;;;;;;16.43;61.15;97750.59;4900806;28;20672;-80
2022/05/27 01:09:11;;;;;;;4.75;2.20;;;;;;;16.34;61.38;97747.75;4893356;28;20215;-81
2022/05/27 01:12:15;;;;;;;4.35;2.33;;;;;;;16.25;61.75;97744.09;4884477;28;20254;-81
2022/05/27 01:14:50;;;;;;;4.93;2.30;;;;;;;16.23;61.60;97741.72;4909972;28;20619;-80
2022/05/27 01:17:35;;;;;;;3.53;2.67;;;;;;;16.14;61.48;97743.31;4909215;28;20253;-80
2022/05/27 01:20:21;;;;;;;3.75;2.35;;;;;;;16.29;61.21;97745.13;4891655;28;20196;-80
2022/05/27 01:23:24;;;;;;;4.63;2.45;;;;;;;16.05;61.53;97747.53;4878110;28;20207;-80
2022/05/27 01:25:50;;;;;;;5.75;2.40;;;;;;;16.16;61.48;97756.19;4891727;28;20144;-81
2022/05/27 01:28:18;;;;;;;3.85;2.50;;;;;;;16.12;61.42;97753.31;4891681;28;20302;-81
2022/05/27 01:30:46;;;;;;;4.15;2.50;;;;;;;16.08;61.65;97747.03;4909466;28;20325;-81
2022/05/27 01:33:39;;;;;;;3.47;2.20;;;;;;;15.94;62.00;97748.59;4891398;28;20304;-82
2022/05/27 01:36:32;;;;;;;4.70;2.72;;;;;;;15.94;62.03;97748.59;4875172;28;20216;-82
2022/05/27 01:39:10;;;;;;;5.53;3.50;;;;;;;15.97;62.57;97743.63;4893693;28;20281;-81
2022/05/27 01:42:05;;;;;;;5.60;3.53;;;;;;;15.96;62.67;97752.56;4889626;28;20617;-81
2022/05/27 01:44:46;;;;;;;5.63;3.47;;;;;;;16.06;62.31;97739.41;4872606;28;20656;-81
2022/05/27 01:47:17;;;;;;;7.53;3.63;;;;;;;16.03;62.45;97737.31;4872018;28;20180;-81
2022/05/27 01:50:05;;;;;;;5.03;3.72;;;;;;;15.89;63.08;97747.56;4856389;28;20227;-80
2022/05/27 01:53:06;;;;;;;4.90;3.33;;;;;;;15.95;62.52;97744.94;4874577;28;20714;-81
2022/05/27 01:55:36;;;;;;;4.47;3.50;;;;;;;16.04;62.04;97733.63;4866953;28;20149;-80
2022/05/27 01:58:13;;;;;;;5.18;3.70;;;;;;;15.88;62.58;97739.94;4855921;28;20286;-81
2022/05/27 02:00:41;;;;;;;5.13;3.50;;;;;;;15.98;62.30;97728.66;4891479;28;20202;-81
2022/05/27 02:03:33;;;;;;;5.00;3.60;;;;;;;15.85;63.38;97720.28;4890990;28;20191;-81
2022/05/27 02:06:06;;;;;;;5.05;3.63;;;;;;;15.94;62.78;97719.72;4875458;28;20284;-81
2022/05/27 02:08:36;;;;;;;5.60;3.90;;;;;;;15.88;63.29;97730.22;4875628;28;20434;-81
2022/05/27 02:11:04;;;;;;;5.57;3.88;;;;;;;16.07;62.70;97730.47;4859538;28;20210;-80
2022/05/27 02:13:35;;;;;;;8.27;3.90;;;;;;;15.94;62.75;97722.34;4859325;28;20205;-81
2022/05/27 02:16:02;;;;;;;6.65;3.75;;;;;;;15.97;62.82;97721.81;4892075;28;20195;-82
2022/05/27 02:18:30;;;;;;;5.75;3.70;;;;;;;16.06;62.51;97726.28;4891299;28;20312;-81
2022/05/27 02:21:06;;;;;;;4.15;3.55;;;;;;;16.00;62.82;97718.66;4878269;28;20276;-81
2022/05/27 02:23:36;;;;;;;7.07;3.92;;;;;;;15.99;62.46;97717.88;4874885;28;20611;-81
2022/05/27 02:26:05;;;;;;;5.90;4.18;;;;;;;16.04;62.57;97717.88;4875107;28;20258;-81
2022/05/27 02:28:34;;;;;;;6.63;4.40;;;;;;;16.04;62.91;97717.06;4891617;28;20259;-81
2022/05/27 02:31:05;;;;;;;5.53;3.40;;;;;;;16.02;62.68;97714.72;4875420;28;20226;-81
2022/05/27 02:36:29;;;;;;;6.50;3.88;;;;;;;16.06;63.31;97715.75;4877548;28;20745;-81
2022/05/27 02:38:54;;;;;;;5.65;3.85;;;;;;;16.24;62.69;97718.88;4889961;28;20369;-82
2022/05/27 02:41:34;;;;;;;5.22;3.78;;;;;;;16.07;63.13;97721.78;4891797;28;20332;-82
2022/05/27 02:44:05;;;;;;;5.45;3.95;;;;;;;16.24;62.80;97717.00;4874966;28;20256;-81
2022/05/27 02:46:49;;;;;;;8.25;4.80;;;;;;;16.21;63.02;97716.75;4911187;28;20368;-81
2022/05/27 02:49:21;;;;;;;6.10;4.85;;;;;;;16.34;62.48;97704.91;4878323;28;20214;-82
2022/05/27 02:51:57;;;;;;;7.55;4.78;;;;;;;16.46;62.51;97715.91;4875980;28;20690;-82
2022/05/27 02:54:32;;;;;;;7.85;5.30;;;;;;;16.45;62.00;97711.69;4910026;28;20171;-81
2022/05/27 02:57:20;;;;;;;7.07;5.10;;;;;;;16.44;62.23;97713.53;4909728;28;20720;-81
2022/05/27 02:59:46;;;;;;;7.20;5.40;;;;;;;16.64;61.35;97714.53;4894923;28;20285;-81
2022/05/27 03:02:14;;;;;;;8.88;5.38;;;;;;;16.67;61.05;97717.41;4894416;28;20206;-82
2022/05/27 03:04:42;;;;;;;9.52;5.82;;;;;;;16.69;60.50;97718.97;4894725;28;20175;-80
2022/05/27 03:07:41;;;;;;;11.10;5.82;;;;;;;16.66;60.97;97717.66;4891429;28;20260;-82
2022/05/27 03:10:09;;;;;;;9.32;5.63;;;;;;;16.85;60.45;97720.50;4907737;28;20211;-81
2022/05/27 03:13:00;;;;;;;7.93;5.57;;;;;;;16.66;60.49;97715.03;4895522;28;20215;-82
2022/05/27 03:15:34;;;;;;;8.45;6.10;;;;;;;16.94;59.99;97718.84;4912251;28;20332;-81
2022/05/27 03:18:28;;;;;;;8.40;5.78;;;;;;;16.75;60.66;97712.63;4894153;28;20186;-80
2022/05/27 03:21:03;;;;;;;8.52;5.70;;;;;;;16.82;59.76;97713.13;4912195;28;20573;-81
2022/05/27 03:23:29;;;;;;;9.73;6.50;;;;;;;16.99;59.48;97705.69;4911616;28;20370;-82
2022/05/27 03:26:41;;;;;;;9.65;6.53;;;;;;;16.74;60.63;97711.84;4894408;28;20191;-81
2022/05/27 03:29:27;;;;;;;8.85;6.65;;;;;;;16.79;60.59;97711.03;4874619;28;20364;-82
2022/05/27 03:31:56;;;;;;;10.30;6.32;;;;;;;16.88;60.46;97713.88;4909830;28;20194;-82
2022/05/27 03:34:27;;;;;;;8.40;7.03;;;;;;;16.97;59.70;97705.16;4909645;28;20684;-81
2022/05/27 03:36:58;;;;;;;8.18;5.68;;;;;;;16.95;59.79;97704.66;4894069;28;20257;-83
2022/05/27 03:39:32;;;;;;;7.47;5.75;;;;;;;16.96;59.84;97700.94;4877025;28;20393;-81
2022/05/27 03:42:00;;;;;;;7.45;5.82;;;;;;;16.93;60.40;97701.53;4877482;28;20160;-81
2022/05/27 03:44:29;;;;;;;8.32;6.32;;;;;;;17.09;59.61;97704.84;4889824;28;20202;-81
2022/05/27 03:46:56;;;;;;;7.85;6.32;;;;;;;17.09;59.51;97710.09;4913262;28;20668;-81
2022/05/27 03:49:21;;;;;;;8.65;6.93;;;;;;;17.09;60.11;97709.31;4912638;28;20296;-81
2022/05/27 03:52:10;;;;;;;8.73;6.50;;;;;;;17.09;59.31;97719.84;4896849;28;20281;-81
2022/05/27 03:54:35;;;;;;;8.15;6.18;;;;;;;17.14;59.56;97720.59;4867532;28;20181;-81
2022/05/27 03:57:04;;;;;;;7.22;6.22;;;;;;;17.08;59.56;97718.25;4891377;28;20398;-78
2022/05/27 03:59:29;;;;;;;7.72;5.82;;;;;;;17.15;59.52;97724.00;4911359;28;20617;-81
2022/05/27 04:01:55;;;;;;;8.48;6.53;;;;;;;17.13;59.49;97716.38;4893626;28;20275;-82
2022/05/27 04:04:23;;;;;;;7.88;5.57;;;;;;;17.14;59.38;97732.97;4877865;28;20614;-82
2022/05/27 04:06:49;;;;;;;9.68;6.30;;;;;;;17.18;59.47;97723.44;4861527;28;20226;-82
2022/05/27 04:09:16;;;;;;;10.82;6.30;;;;;;;17.20;59.41;97734.50;4877650;28;20199;-82
2022/05/27 04:11:41;;;;;;;7.38;6.25;;;;;;;17.23;59.27;97726.06;4860190;28;20184;-81
2022/05/27 04:14:07;;;;;;;9.00;6.10;;;;;;;17.25;59.31;97728.41;4907797;28;20215;-83
2022/05/27 04:16:32;;;;;;;9.32;6.80;;;;;;;17.29;59.04;97724.97;4893496;28;20625;-82
2022/05/27 04:18:58;;;;;;;9.50;6.60;;;;;;;17.22;59.62;97729.72;4893376;28;20195;-83
2022/05/27 04:21:23;;;;;;;6.82;5.50;;;;;;;17.19;59.52;97723.19;4892914;28;20760;-80
2022/05/27 04:23:49;;;;;;;7.57;6.03;;;;;;;17.30;59.38;97731.00;4893157;28;20760;-81
2022/05/27 04:26:15;;;;;;;8.32;6.00;;;;;;;17.27;59.30;97732.31;4892978;28;20156;-79
2022/05/27 04:28:40;;;;;;;7.28;5.88;;;;;;;17.34;59.24;97742.56;4893149;28;20214;-81
2022/05/27 04:31:06;;;;;;;8.80;6.18;;;;;;;17.31;59.45;97743.13;4893036;28;20649;-81
2022/05/27 04:33:31;;;;;;;7.13;5.65;;;;;;;17.29;59.73;97740.75;4893095;28;20115;-81
2022/05/27 04:35:58;;;;;;;7.03;6.10;;;;;;;17.23;59.75;97742.63;4861196;28;20194;-80
2022/05/27 04:38:24;;;;;;;7.30;5.78;;;;;;;17.31;59.85;97749.16;4891808;28;20637;-81
2022/05/27 04:40:49;;;;;;;10.68;6.25;;;;;;;17.32;59.66;97750.72;4910665;28;20202;-81
2022/05/27 04:43:16;;;;;;;7.85;5.43;;;;;;;17.29;59.80;97750.47;4911444;28;20443;-81
2022/05/27 04:45:41;;;;;;;9.55;6.38;;;;;;;17.24;59.75;97743.44;4905256;28;20251;-82
2022/05/27 04:48:07;;;;;;;8.45;6.35;;;;;;;17.28;59.47;97752.34;4892106;28;20290;-81
2022/05/27 04:50:33;;;;;;;7.38;5.25;;;;;;;17.28;59.74;97749.69;4873654;28;20199;-81
2022/05/27 04:52:59;;;;;;;8.18;5.65;;;;;;;17.23;59.68;97742.63;4871918;28;20203;-80
2022/05/27 04:55:24;;;;;;;7.78;6.22;;;;;;;17.31;59.65;97745.75;4892447;28;20286;-81
2022/05/27 04:57:53;;;;;;;8.25;6.63;;;;;;;17.32;59.20;97747.31;4876749;28;20729;-80
2022/05/27 05:00:25;;;;;;;10.60;6.50;;;;;;;17.31;59.34;97751.78;4891840;28;20202;-81
2022/05/27 05:02:50;;;;;;;8.80;6.28;;;;;;;17.35;59.86;97755.44;4891161;28;20610;-81
2022/05/27 05:05:18;;;;;;;7.68;5.75;;;;;;;17.40;59.33;97749.38;4907354;28;20555;-81
2022/05/27 05:07:45;;;;;;;6.38;5.25;;;;;;;17.36;59.30;97751.75;4891276;28;20180;-80
2022/05/27 05:10:13;;;;;;;8.20;5.38;;;;;;;17.38;59.82;97754.13;4890549;28;20184;-80
2022/05/27 05:12:39;;;;;;;8.77;5.95;;;;;;;17.36;59.87;97751.75;4891190;28;20309;-80
2022/05/27 05:15:05;;;;;;;7.03;6.13;;;;;;;17.35;59.69;97752.03;4891456;28;20228;-81
2022/05/27 05:17:30;;;;;;;7.72;5.72;;;;;;;17.40;60.29;97752.78;4878483;28;20626;-80
2022/05/27 05:19:56;;;;;;;7.47;6.32;;;;;;;17.42;59.62;97750.66;4875351;28;20215;-80
2022/05/27 05:22:23;;;;;;;8.15;5.82;;;;;;;17.40;60.08;97752.78;4874233;28;20279;-81
2022/05/27 05:24:53;;;;;;;7.95;6.20;;;;;;;17.53;60.16;97751.38;4871796;28;20634;-80
2022/05/27 05:27:23;;;;;;;8.98;5.38;;;;;;;17.60;60.38;97758.97;4878974;28;20164;-80
2022/05/27 05:29:48;;;;;;;7.78;5.75;;;;;;;17.75;59.52;97753.56;4874741;28;20210;-81
2022/05/27 05:32:13;;;;;;;7.10;5.50;;;;;;;17.92;59.56;97753.19;4890627;28;20164;-80
2022/05/27 05:34:39;;;;;;;7.22;5.13;;;;;;;17.85;59.85;97749.28;4890682;28;20644;-82
2022/05/27 05:37:04;;;;;;;6.50;4.75;;;;;;;17.76;59.06;97743.81;4874713;28;20573;-81
2022/05/27 05:39:29;;;;;;;7.07;5.15;;;;;;;17.85;58.81;97736.09;4890368;28;20693;-80
2022/05/27 05:42:00;;;;;;;5.95;5.35;;;;;;;17.63;59.12;97739.97;4874619;28;20265;-81
2022/05/27 05:44:32;;;;;;;7.43;5.38;;;;;;;17.67;58.91;97734.94;4890658;28;20296;-80
2022/05/27 05:46:59;;;;;;;6.25;4.57;;;;;;;17.73;58.86;97731.97;4875953;28;20214;-80
2022/05/27 05:49:25;;;;;;;6.88;5.55;;;;;;;17.56;59.54;97742.13;4900859;28;20670;-83
2022/05/27 05:51:51;;;;;;;7.63;5.68;;;;;;;17.72;59.18;97733.06;4875819;28;20236;-79
2022/05/27 05:54:17;;;;;;;6.95;4.82;;;;;;;17.75;58.60;97727.25;4894053;28;20293;-80
2022/05/27 05:56:43;;;;;;;5.75;4.45;;;;;;;17.69;58.98;97727.56;4891434;28;20195;-80
2022/05/27 05:59:08;;;;;;;6.63;4.53;;;;;;;17.74;58.89;97730.94;4909012;28;20266;-80
2022/05/27 06:01:33;;;;;;;6.70;4.32;;;;;;;17.83;58.75;97736.38;4891472;28;20259;-80
2022/05/27 06:03:59;;;;;;;6.15;4.07;;;;;;;17.85;58.27;97730.84;4891259;28;20290;-80
2022/05/27 06:06:24;;;;;;;5.95;4.53;;;;;;;17.75;59.06;97737.78;4890706;28;20298;-80
2022/05/27 06:08:50;;;;;;;4.97;4.30;;;;;;;17.99;59.06;97729.13;4890704;28;20148;-80
2022/05/27 06:11:15;;;;;;;4.97;4.45;;;;;;;18.14;58.89;97736.09;4862040;28;20293;-81
2022/05/27 06:13:41;;;;;;;4.60;4.18;;;;;;;18.30;58.22;97734.09;4910305;28;20136;-80
2022/05/27 06:16:09;;;;;;;9.60;5.30;;;;;;;18.19;57.75;97736.06;4894338;28;20253;-80
2022/05/27 06:18:35;;;;;;;5.97;4.68;;;;;;;18.45;57.31;97731.28;4910305;28;20249;-80
2022/05/27 06:21:01;;;;;;;5.93;4.38;;;;;;;18.52;57.52;97731.75;4861385;28;20257;-80
2022/05/27 06:23:28;;;;;;;5.13;4.32;;;;;;;18.59;57.29;97733.25;4874892;28;20625;-80
2022/05/27 06:25:58;;;;;;;8.00;4.70;;;;;;;18.55;56.81;97730.38;4891012;28;20194;-80
2022/05/27 06:36:47;;;;;;;7.10;4.43;;;;;;;18.55;57.16;97737.53;4893551;28;20255;-80
2022/05/27 06:39:13;;;;;;;5.57;4.53;;;;;;;18.66;56.39;97744.22;4891026;28;20283;-78
2022/05/27 06:41:39;;;;;;;5.97;5.25;;;;;;;18.48;57.53;97751.03;4891861;28;20183;-79
2022/05/27 06:44:05;;;;;;;5.22;4.70;;;;;;;18.49;56.70;97756.03;4909972;28;20179;-78
2022/05/27 06:46:31;;;;;;;7.28;4.82;;;;;;;18.44;57.22;97757.94;4910234;28;20282;-79
2022/05/27 06:48:57;;;;;;;6.70;4.93;;;;;;;18.37;56.83;97763.56;4893501;28;20179;-79
2022/05/27 06:51:23;;;;;;;5.75;5.10;;;;;;;18.35;57.97;97760.41;4893778;28;20205;-80
2022/05/27 06:53:48;;;;;;;5.65;5.05;;;;;;;18.31;57.49;97762.03;4886013;28;20366;-80
2022/05/27 06:56:14;;;;;;;8.52;6.20;;;;;;;18.28;57.54;97760.75;4884793;28;20645;-79
2022/05/27 06:58:40;;;;;;;5.68;5.00;;;;;;;18.30;57.68;97763.91;4890530;28;20247;-80
2022/05/27 07:01:07;;;;;;;5.88;4.75;;;;;;;18.25;58.54;97769.22;4874679;28;20207;-80
2022/05/27 07:03:32;;;;;;;6.00;5.28;;;;;;;18.18;58.53;97760.06;4890698;28;20203;-79
2022/05/27 07:05:57;;;;;;;5.97;5.32;;;;;;;18.28;58.07;97767.84;4903833;28;20187;-80
2022/05/27 07:08:23;;;;;;;9.30;5.65;;;;;;;18.27;58.17;97774.22;4871771;28;20259;-80
2022/05/27 07:10:48;;;;;;;8.90;5.25;;;;;;;18.32;58.30;97772.31;4873637;28;20298;-80
2022/05/27 07:13:14;;;;;;;7.10;5.35;;;;;;;18.09;58.73;97773.84;4891018;28;20271;-80
2022/05/27 07:15:40;;;;;;;7.45;5.18;;;;;;;18.21;58.64;97764.78;4874775;28;20294;-79
2022/05/27 07:18:08;;;;;;;7.53;5.15;;;;;;;18.34;57.97;97758.84;4890611;28;20195;-79
2022/05/27 07:20:36;;;;;;;7.38;5.45;;;;;;;18.27;58.81;97769.72;4875430;28;20517;-79
2022/05/27 07:23:03;;;;;;;7.55;4.90;;;;;;;18.30;58.71;97773.63;4890084;28;20289;-79
2022/05/27 07:25:28;;;;;;;6.07;4.93;;;;;;;18.39;57.94;97777.25;4890593;28;20286;-80
2022/05/27 07:27:54;;;;;;;6.60;5.22;;;;;;;18.36;57.68;97772.53;4874922;28;20702;-80
2022/05/27 07:30:20;;;;;;;7.55;5.90;;;;;;;18.38;57.47;97775.66;4889171;28;20263;-80
2022/05/27 07:32:45;;;;;;;6.18;5.57;;;;;;;18.26;58.77;97783.19;4891823;28;20210;-80
2022/05/27 07:35:11;;;;;;;5.68;4.63;;;;;;;18.31;58.27;97777.84;4862771;28;20709;-79
2022/05/27 07:37:36;;;;;;;7.78;5.50;;;;;;;18.23;58.51;97783.72;4877792;28;20130;-79
2022/05/27 07:40:02;;;;;;;8.98;6.57;;;;;;;18.24;57.86;97777.41;4911938;28;20709;-79
2022/05/27 07:42:28;;;;;;;6.90;5.63;;;;;;;18.33;57.96;97783.63;4877733;28;20207;-79
2022/05/27 07:44:53;;;;;;;6.55;5.65;;;;;;;18.42;56.75;97781.16;4893907;28;20198;-81
2022/05/27 07:47:19;;;;;;;7.78;6.43;;;;;;;18.29;57.50;97782.63;4894249;28;20195;-77
2022/05/27 07:49:45;;;;;;;9.18;5.55;;;;;;;18.26;57.83;97785.81;4893702;28;20769;-80
2022/05/27 07:52:10;;;;;;;6.30;5.57;;;;;;;18.27;57.56;97782.91;4877333;28;20276;-80
2022/05/27 07:54:35;;;;;;;6.20;4.68;;;;;;;18.34;57.19;97779.94;4893455;28;20380;-79
2022/05/27 07:57:02;;;;;;;5.30;4.75;;;;;;;18.44;56.61;97790.38;4880340;28;20247;-79
2022/05/27 07:59:28;;;;;;;4.40;4.00;;;;;;;18.42;56.44;97789.88;4893221;28;20203;-81
2022/05/27 08:01:53;;;;;;;6.07;4.60;;;;;;;18.34;56.03;97793.91;4893140;28;20214;-80
2022/05/27 08:04:19;;;;;;;4.93;3.90;;;;;;;18.50;55.73;97789.22;4877488;28;20291;-80
2022/05/27 08:06:45;;;;;;;5.22;4.03;;;;;;;18.57;55.81;97793.41;4893433;28;20399;-80
2022/05/27 08:09:12;;;;;;;4.32;3.42;;;;;;;18.44;56.72;97779.81;4893498;28;20188;-79
2022/05/27 08:11:37;;;;;;;4.68;3.78;;;;;;;18.60;57.72;97782.28;4895391;28;20287;-80
2022/05/27 08:14:03;;;;;;;3.58;3.10;;;;;;;18.80;56.82;97781.25;4912597;28;20310;-79
2022/05/27 08:16:32;;;;;;;3.45;3.00;;;;;;;18.90;57.79;97781.97;4930556;28;20306;-79
2022/05/27 08:18:59;;;;;;;3.33;2.25;;;;;;;19.04;55.67;97768.06;4913080;28;20411;-80
2022/05/27 08:21:25;;;;;;;2.90;2.10;;;;;;;18.97;55.96;97772.88;4896378;28;20628;-80
2022/05/27 08:23:50;;;;;;;2.85;1.95;;;;;;;19.21;55.24;97771.00;4896775;28;20163;-79
2022/05/27 08:26:16;;;;;;;2.10;1.67;;;;;;;19.36;54.91;97771.84;4912997;28;20214;-80
2022/05/27 08:28:42;;;;;;;1.75;1.42;;;;;;;19.51;53.97;97778.75;4913209;28;20221;-78
2022/05/27 08:31:08;;;;;;;3.53;1.85;;;;;;;19.48;54.58;97779.31;4880865;28;20183;-79
2022/05/27 08:39:06;;;;;;;2.83;2.03;;;;;;;19.40;54.05;97775.47;4877280;28;20188;-80
2022/05/27 08:41:46;;;;;;;2.83;1.80;;;;;;;19.41;53.99;97774.41;4879983;28;20286;-80
2022/05/27 08:44:15;;;;;;;2.85;2.00;;;;;;;19.62;54.27;97778.31;4890275;28;20293;-80
2022/05/27 08:46:46;;;;;;;2.65;1.60;;;;;;;19.67;53.87;97774.78;4893280;28;20342;-79
2022/05/27 08:49:18;;;;;;;3.22;1.85;;;;;;;19.57;53.99;97778.38;4889742;28;20199;-80
2022/05/27 08:51:49;;;;;;;2.55;1.83;;;;;;;19.67;52.26;97782.72;4889306;28;20181;-79
2022/05/27 08:54:25;;;;;;;3.78;1.75;;;;;;;19.47;53.59;97775.91;4878287;28;20196;-79
2022/05/27 08:59:51;;;;;;;2.20;1.85;;;;;;;19.42;54.32;97783.91;4877155;28;20181;-79
2022/05/27 09:02:38;;;;;;;3.10;1.92;;;;;;;19.16;55.06;97784.25;4873422;28;20287;-79
2022/05/27 09:05:15;;;;;;;2.42;1.70;;;;;;;19.45;55.48;97785.97;4891961;28;20199;-79
2022/05/27 09:07:51;;;;;;;2.25;1.50;;;;;;;19.23;55.09;97787.31;4858249;28;20275;-79
2022/05/27 09:10:34;;;;;;;2.65;1.90;;;;;;;19.36;53.32;97790.31;4857825;28;20264;-80
2022/05/27 09:13:19;;;;;;;3.47;1.27;;;;;;;19.30;54.00;97794.13;4892335;28;20163;-80
2022/05/27 09:15:54;;;;;;;3.45;1.70;;;;;;;19.28;52.93;97792.53;4928922;28;20198;-77
2022/05/27 09:18:29;;;;;;;2.72;1.77;;;;;;;19.33;53.26;97793.53;4879546;28;20304;-80
2022/05/27 09:21:11;;;;;;;3.05;1.80;;;;;;;19.18;54.08;97792.69;4894111;28;20213;-80
2022/05/27 09:23:50;;;;;;;2.47;1.50;;;;;;;19.17;53.50;97793.72;4876180;28;20290;-80
2022/05/27 09:26:28;;;;;;;1.92;1.40;;;;;;;18.97;54.47;97801.91;4873073;28;20189;-79
2022/05/27 09:29:11;;;;;;;1.92;1.20;;;;;;;18.95;54.23;97791.63;4873295;28;20191;-79
2022/05/27 09:32:13;;;;;;;3.50;1.52;;;;;;;18.99;54.93;97805.09;4873333;28;20272;-80
2022/05/27 09:34:42;;;;;;;2.28;1.70;;;;;;;19.05;54.26;97801.28;4881843;28;20214;-80
2022/05/27 09:37:09;;;;;;;2.85;1.48;;;;;;;18.97;55.39;97801.91;4860953;28;20285;-79
2022/05/27 09:39:34;;;;;;;3.05;2.13;;;;;;;18.79;55.59;97796.31;4893067;28;20211;-79
2022/05/27 09:42:19;;;;;;;1.50;1.30;;;;;;;18.81;56.40;97802.06;4892065;28;20302;-79
2022/05/27 09:44:53;;;;;;;1.88;1.67;;;;;;;18.83;56.85;97797.34;4873076;28;20168;-79
2022/05/27 09:47:20;;;;;;;2.95;1.50;;;;;;;18.82;55.68;97794.97;4872274;28;20215;-80
2022/05/27 09:49:49;;;;;;;1.20;0.93;;;;;;;18.88;55.55;97805.22;4872709;28;20211;-80
2022/05/27 09:52:15;;;;;;;2.30;1.30;;;;;;;19.09;56.05;97805.72;4889464;28;20113;-79
2022/05/27 09:54:50;;;;;;;1.90;1.20;;;;;;;18.96;56.63;97809.06;4860355;28;20333;-79
2022/05/27 09:57:28;;;;;;;1.90;1.10;;;;;;;19.03;56.37;97806.84;4892227;28;20270;-79
2022/05/27 10:00:00;;;;;;;2.03;1.10;;;;;;;19.11;56.49;97808.09;4876481;28;20209;-80
2022/05/27 10:02:25;;;;;;;1.65;1.05;;;;;;;19.25;56.52;97811.59;4860775;28;20355;-80
2022/05/27 10:04:57;;;;;;;1.90;1.30;;;;;;;19.05;57.36;97810.00;4908299;28;20756;-79
2022/05/27 10:07:42;;;;;;;1.70;1.13;;;;;;;19.09;56.93;97810.22;4909384;28;20300;-79
2022/05/27 10:10:31;;;;;;;1.85;1.13;;;;;;;18.78;59.43;97800.03;4861046;28;20295;-78
2022/05/27 10:13:34;;;;;;;1.77;1.20;;;;;;;19.14;57.97;97802.25;4869633;28;20373;-79
2022/05/27 10:16:08;;;;;;;1.95;1.20;;;;;;;19.24;56.06;97790.75;4896712;28;20662;-79
2022/05/27 10:18:34;;;;;;;1.30;1.20;;;;;;;19.32;56.65;97787.47;4911049;28;20774;-79
2022/05/27 10:21:04;;;;;;;2.05;1.10;;;;;;;19.48;55.67;97789.88;4850970;28;20338;-79
2022/05/27 10:23:33;;;;;;;1.67;1.20;;;;;;;19.54;54.86;97783.47;4872027;28;20650;-79
2022/05/27 10:26:00;;;;;;;1.42;0.98;;;;;;;19.58;53.80;97784.44;4888533;28;20671;-80
2022/05/27 10:28:30;;;;;;;0.98;0.85;;;;;;;19.50;54.80;97782.44;4856945;28;20204;-79
2022/05/27 10:31:02;;;;;;;2.78;1.15;;;;;;;19.59;54.53;97786.81;4871999;28;20226;-79
2022/05/27 10:33:42;;;;;;;1.38;1.10;;;;;;;19.64;54.60;97794.66;4872250;28;20190;-79
2022/05/27 10:36:26;;;;;;;1.23;1.10;;;;;;;19.53;54.72;97787.94;4856098;28;20729;-79
2022/05/27 10:39:01;;;;;;;1.42;0.85;;;;;;;19.74;54.37;97787.63;4890905;28;20043;-77
2022/05/27 10:41:47;;;;;;;1.65;0.85;;;;;;;19.58;54.29;97790.50;4872048;28;20399;-78
2022/05/27 10:44:50;;;;;;;2.40;1.05;;;;;;;19.46;54.17;97790.94;4884758;28;20181;-79
2022/05/27 10:47:37;;;;;;;2.10;0.85;;;;;;;19.55;54.84;97796.38;4888967;28;20239;-79
2022/05/27 10:50:29;;;;;;;1.75;1.30;;;;;;;19.52;55.03;97794.31;4889773;28;20376;-81
2022/05/27 10:53:17;;;;;;;1.58;1.08;;;;;;;19.27;55.35;97798.09;4892054;28;20239;-79
2022/05/27 10:55:48;;;;;;;1.73;1.10;;;;;;;19.45;55.75;97793.91;4880015;28;20198;-79
2022/05/27 11:04:15;;;;;;;1.13;0.95;;;;;;;19.35;53.94;97791.41;4908260;28;20633;-78
2022/05/27 11:07:10;;;;;;;1.58;1.10;;;;;;;19.23;54.28;97797.88;4875211;28;20782;-78
2022/05/27 11:09:51;;;;;;;1.53;1.17;;;;;;;19.19;53.90;97788.97;4903573;28;20616;-77
2022/05/27 11:15:45;;;;;;;1.70;1.35;;;;;;;19.11;54.18;97792.25;4931161;28;20284;-78
2022/05/27 11:18:32;;;;;;;2.20;1.40;;;;;;;19.14;53.99;97796.97;4894811;28;20573;-78
2022/05/27 11:21:18;;;;;;;1.60;1.50;;;;;;;19.06;54.53;97790.47;4910517;28;20664;-80
2022/05/27 11:24:07;;;;;;;1.58;1.40;;;;;;;19.15;54.91;97793.25;4897366;28;20415;-79
2022/05/27 11:26:53;;;;;;;1.70;1.48;;;;;;;19.11;54.96;97789.59;4931477;28;20323;-78
2022/05/27 11:29:45;;;;;;;2.08;1.70;;;;;;;18.89;56.54;97800.72;4914022;28;20273;-78
2022/05/27 11:32:22;;;;;;;3.25;2.38;;;;;;;19.05;54.86;97798.66;4912853;28;20286;-79
2022/05/27 11:35:07;;;;;;;3.78;2.20;;;;;;;19.08;55.17;97808.66;4902250;28;20103;-78
2022/05/27 11:37:46;;;;;;;2.88;2.13;;;;;;;19.02;55.16;97788.66;4894051;28;20206;-80
2022/05/27 11:40:18;;;;;;;4.18;2.60;;;;;;;18.93;55.73;97796.41;4893559;28;20296;-79
2022/05/27 11:43:11;;;;;;;3.38;2.45;;;;;;;18.81;56.01;97794.16;4899004;28;20178;-79
2022/05/27 11:45:39;;;;;;;3.85;3.45;;;;;;;19.04;55.27;97795.25;4902209;28;20222;-77
2022/05/27 11:48:20;;;;;;;5.57;3.63;;;;;;;19.06;55.61;97797.59;4903944;28;20213;-78
2022/05/27 11:51:09;;;;;;;4.57;3.45;;;;;;;19.10;55.37;97788.03;4890977;28;20757;-77
2022/05/27 11:54:03;;;;;;;3.15;2.85;;;;;;;19.24;54.59;97796.03;4899965;28;20243;-79
2022/05/27 11:56:59;;;;;;;3.00;2.70;;;;;;;19.30;55.17;97794.13;4918673;28;20708;-78
2022/05/27 11:59:48;;;;;;;3.03;2.53;;;;;;;19.42;55.30;97787.31;4896361;28;20652;-79
2022/05/27 12:02:19;;;;;;;2.88;2.67;;;;;;;19.57;55.03;97791.59;4914468;28;20157;-79
2022/05/27 12:04:52;;;;;;;3.55;3.25;;;;;;;19.61;53.63;97783.88;4906260;28;20080;-78
2022/05/27 12:07:39;;;;;;;3.97;3.58;;;;;;;19.53;54.57;97776.59;4879795;28;20283;-76
2022/05/27 12:10:08;;;;;;;3.80;3.30;;;;;;;19.89;53.26;97782.13;4893333;28;20831;-79
2022/05/27 12:12:49;;;;;;;3.17;2.88;;;;;;;19.77;54.32;97771.22;4892057;28;20154;-79
2022/05/27 12:15:41;;;;;;;3.42;3.13;;;;;;;19.90;53.82;97772.34;4912559;28;20201;-79
2022/05/27 12:18:23;;;;;;;4.18;3.35;;;;;;;19.87;53.50;97773.72;4926688;28;20777;-79
2022/05/27 12:20:49;;;;;;;3.92;3.55;;;;;;;19.97;53.09;97764.84;4886809;28;20233;-79
2022/05/27 12:23:16;;;;;;;3.65;3.25;;;;;;;19.68;53.04;97772.94;4902350;28;20188;-77
2022/05/27 12:25:46;;;;;;;2.60;2.40;;;;;;;19.56;53.72;97771.53;4895643;28;20647;-79